North Truro, Massachusetts
Current Conditions -  °F | °C
As of 8:15 AM on Wednesday 22 Oct 2014 (Local Time) from KPVC Reporting Station
Overcast Overcast  
Wind Chill: 57°   Ceiling: 500
Heat Index: 57°   Visibility: 6mi
Dew Point: 54°   Wind: 17mph
Humidity: 88%   Direction: 50°NE
Pressure: 29.95"   Gusts: 26mph
Location:  42.03°N, 70.09°W
Report Text: KPVC 221215Z 05015G23KT 6SM OVC005 14/12 A2995 RMK AO1
Loading
Personal Weather Stations






























Interactive Weather Map
Tropical Storm Tracking
New forecast layout! Learn more

10-Day Weather Forecast

Advertisements
Track Severe Weather on mobile